sensor_id;sensor_type;location;lat;lon;timestamp;P1;durP1;ratioP1;P2;durP2;ratioP2
28531;SDS011;15738;44.860;10.066;2022-07-30T00:01:41;24.02;;;11.07;;
28531;SDS011;15738;44.860;10.066;2022-07-30T00:04:26;17.30;;;10.25;;
28531;SDS011;15738;44.860;10.066;2022-07-30T00:07:14;19.95;;;10.73;;
28531;SDS011;15738;44.860;10.066;2022-07-30T00:10:02;18.42;;;10.43;;
28531;SDS011;15738;44.860;10.066;2022-07-30T00:12:49;17.13;;;9.63;;
28531;SDS011;15738;44.860;10.066;2022-07-30T00:15:35;19.35;;;9.70;;
28531;SDS011;15738;44.860;10.066;2022-07-30T00:18:23;15.38;;;9.15;;
28531;SDS011;15738;44.860;10.066;2022-07-30T00:21:09;15.18;;;8.25;;
28531;SDS011;15738;44.860;10.066;2022-07-30T00:24:17;12.48;;;8.35;;
28531;SDS011;15738;44.860;10.066;2022-07-30T00:27:03;12.45;;;7.68;;
28531;SDS011;15738;44.860;10.066;2022-07-30T00:29:49;10.05;;;6.80;;
28531;SDS011;15738;44.860;10.066;2022-07-30T00:32:39;13.68;;;7.85;;
28531;SDS011;15738;44.860;10.066;2022-07-30T00:35:26;15.45;;;6.75;;
28531;SDS011;15738;44.860;10.066;2022-07-30T00:38:12;11.77;;;5.35;;
28531;SDS011;15738;44.860;10.066;2022-07-30T00:40:58;8.93;;;6.00;;
28531;SDS011;15738;44.860;10.066;2022-07-30T00:43:46;10.63;;;6.55;;
28531;SDS011;15738;44.860;10.066;2022-07-30T00:46:32;14.35;;;6.22;;
28531;SDS011;15738;44.860;10.066;2022-07-30T00:49:18;13.10;;;6.95;;
28531;SDS011;15738;44.860;10.066;2022-07-30T00:52:05;14.73;;;8.63;;
28531;SDS011;15738;44.860;10.066;2022-07-30T00:54:51;14.07;;;9.25;;
28531;SDS011;15738;44.860;10.066;2022-07-30T00:57:37;19.55;;;8.95;;
28531;SDS011;15738;44.860;10.066;2022-07-30T01:00:23;14.73;;;8.90;;
28531;SDS011;15738;44.860;10.066;2022-07-30T01:03:09;13.00;;;8.45;;
28531;SDS011;15738;44.860;10.066;2022-07-30T01:05:56;13.70;;;8.32;;
28531;SDS011;15738;44.860;10.066;2022-07-30T01:08:42;12.88;;;8.63;;
28531;SDS011;15738;44.860;10.066;2022-07-30T01:11:30;19.35;;;9.18;;
28531;SDS011;15738;44.860;10.066;2022-07-30T01:14:23;15.18;;;9.40;;
28531;SDS011;15738;44.860;10.066;2022-07-30T01:17:12;17.33;;;9.10;;
28531;SDS011;15738;44.860;10.066;2022-07-30T01:20:00;17.23;;;9.57;;
28531;SDS011;15738;44.860;10.066;2022-07-30T01:23:00;9.75;;;7.82;;
28531;SDS011;15738;44.860;10.066;2022-07-30T01:26:03;14.73;;;8.60;;
28531;SDS011;15738;44.860;10.066;2022-07-30T01:28:53;12.65;;;8.45;;
28531;SDS011;15738;44.860;10.066;2022-07-30T01:31:40;15.68;;;9.57;;
28531;SDS011;15738;44.860;10.066;2022-07-30T01:34:30;14.30;;;9.13;;
28531;SDS011;15738;44.860;10.066;2022-07-30T01:37:18;19.63;;;10.25;;
28531;SDS011;15738;44.860;10.066;2022-07-30T01:40:07;15.00;;;10.52;;
28531;SDS011;15738;44.860;10.066;2022-07-30T01:42:54;14.27;;;10.07;;
28531;SDS011;15738;44.860;10.066;2022-07-30T01:45:43;13.93;;;9.55;;
28531;SDS011;15738;44.860;10.066;2022-07-30T01:48:34;14.88;;;9.20;;
28531;SDS011;15738;44.860;10.066;2022-07-30T01:51:22;16.35;;;9.45;;
28531;SDS011;15738;44.860;10.066;2022-07-30T01:54:22;15.73;;;9.18;;
28531;SDS011;15738;44.860;10.066;2022-07-30T01:57:09;14.48;;;9.02;;
28531;SDS011;15738;44.860;10.066;2022-07-30T01:59:59;16.73;;;9.73;;
28531;SDS011;15738;44.860;10.066;2022-07-30T02:03:00;20.42;;;10.35;;
28531;SDS011;15738;44.860;10.066;2022-07-30T02:05:55;14.50;;;9.07;;
28531;SDS011;15738;44.860;10.066;2022-07-30T02:08:55;13.68;;;9.27;;
28531;SDS011;15738;44.860;10.066;2022-07-30T02:11:57;16.65;;;9.98;;
28531;SDS011;15738;44.860;10.066;2022-07-30T02:24:00;18.52;;;10.57;;
28531;SDS011;15738;44.860;10.066;2022-07-30T02:26:50;14.45;;;10.43;;
28531;SDS011;15738;44.860;10.066;2022-07-30T02:29:43;15.70;;;10.02;;
28531;SDS011;15738;44.860;10.066;2022-07-30T02:32:34;17.00;;;11.75;;
28531;SDS011;15738;44.860;10.066;2022-07-30T02:35:24;18.17;;;11.90;;
28531;SDS011;15738;44.860;10.066;2022-07-30T02:38:11;16.30;;;11.80;;
28531;SDS011;15738;44.860;10.066;2022-07-30T02:41:03;20.60;;;11.98;;
28531;SDS011;15738;44.860;10.066;2022-07-30T02:43:56;21.60;;;11.52;;
28531;SDS011;15738;44.860;10.066;2022-07-30T02:46:42;16.50;;;11.43;;
28531;SDS011;15738;44.860;10.066;2022-07-30T02:49:47;23.83;;;12.68;;
28531;SDS011;15738;44.860;10.066;2022-07-30T02:52:36;18.98;;;12.80;;
28531;SDS011;15738;44.860;10.066;2022-07-30T02:55:30;24.08;;;13.27;;
28531;SDS011;15738;44.860;10.066;2022-07-30T02:58:21;24.70;;;14.55;;
28531;SDS011;15738;44.860;10.066;2022-07-30T03:01:10;24.98;;;15.07;;
28531;SDS011;15738;44.860;10.066;2022-07-30T03:04:00;24.35;;;14.70;;
28531;SDS011;15738;44.860;10.066;2022-07-30T03:06:49;25.95;;;17.40;;
28531;SDS011;15738;44.860;10.066;2022-07-30T03:09:37;30.48;;;18.50;;
28531;SDS011;15738;44.860;10.066;2022-07-30T03:12:36;35.22;;;21.92;;
28531;SDS011;15738;44.860;10.066;2022-07-30T03:15:26;45.15;;;23.90;;
28531;SDS011;15738;44.860;10.066;2022-07-30T03:18:14;41.50;;;23.42;;
28531;SDS011;15738;44.860;10.066;2022-07-30T03:21:08;40.13;;;24.85;;
28531;SDS011;15738;44.860;10.066;2022-07-30T03:23:56;41.00;;;24.65;;
28531;SDS011;15738;44.860;10.066;2022-07-30T03:26:45;38.45;;;24.08;;
28531;SDS011;15738;44.860;10.066;2022-07-30T03:29:33;42.95;;;26.52;;
28531;SDS011;15738;44.860;10.066;2022-07-30T03:32:21;40.97;;;24.92;;
28531;SDS011;15738;44.860;10.066;2022-07-30T03:35:11;43.58;;;23.25;;
28531;SDS011;15738;44.860;10.066;2022-07-30T03:38:04;39.58;;;25.17;;
28531;SDS011;15738;44.860;10.066;2022-07-30T03:40:50;41.25;;;26.25;;
28531;SDS011;15738;44.860;10.066;2022-07-30T03:43:39;41.80;;;26.23;;
28531;SDS011;15738;44.860;10.066;2022-07-30T03:46:26;39.00;;;25.25;;
28531;SDS011;15738;44.860;10.066;2022-07-30T03:49:17;42.08;;;25.05;;
28531;SDS011;15738;44.860;10.066;2022-07-30T03:52:05;36.67;;;22.70;;
28531;SDS011;15738;44.860;10.066;2022-07-30T03:54:54;41.42;;;24.83;;
28531;SDS011;15738;44.860;10.066;2022-07-30T03:58:01;35.95;;;23.15;;
28531;SDS011;15738;44.860;10.066;2022-07-30T04:00:49;38.90;;;22.45;;
28531;SDS011;15738;44.860;10.066;2022-07-30T04:03:36;37.00;;;23.70;;
28531;SDS011;15738;44.860;10.066;2022-07-30T04:06:24;35.38;;;22.40;;
28531;SDS011;15738;44.860;10.066;2022-07-30T04:09:11;42.30;;;22.27;;
28531;SDS011;15738;44.860;10.066;2022-07-30T04:11:57;32.80;;;22.48;;
28531;SDS011;15738;44.860;10.066;2022-07-30T04:14:49;30.77;;;20.88;;
28531;SDS011;15738;44.860;10.066;2022-07-30T04:17:48;35.28;;;22.80;;
28531;SDS011;15738;44.860;10.066;2022-07-30T04:20:42;32.72;;;22.00;;
28531;SDS011;15738;44.860;10.066;2022-07-30T04:23:33;32.75;;;21.35;;
28531;SDS011;15738;44.860;10.066;2022-07-30T04:26:39;36.78;;;19.77;;
28531;SDS011;15738;44.860;10.066;2022-07-30T04:29:26;31.17;;;19.73;;
28531;SDS011;15738;44.860;10.066;2022-07-30T04:32:14;30.23;;;19.98;;
28531;SDS011;15738;44.860;10.066;2022-07-30T04:35:27;27.05;;;18.52;;
28531;SDS011;15738;44.860;10.066;2022-07-30T04:38:35;35.15;;;18.27;;
28531;SDS011;15738;44.860;10.066;2022-07-30T04:41:20;31.13;;;18.00;;
28531;SDS011;15738;44.860;10.066;2022-07-30T04:44:30;27.67;;;16.65;;
28531;SDS011;15738;44.860;10.066;2022-07-30T04:47:36;24.65;;;16.60;;
28531;SDS011;15738;44.860;10.066;2022-07-30T04:50:44;26.58;;;15.63;;
28531;SDS011;15738;44.860;10.066;2022-07-30T04:53:36;29.02;;;15.27;;
28531;SDS011;15738;44.860;10.066;2022-07-30T04:56:24;27.35;;;16.20;;
28531;SDS011;15738;44.860;10.066;2022-07-30T04:59:13;30.95;;;15.15;;
28531;SDS011;15738;44.860;10.066;2022-07-30T05:02:02;31.58;;;14.93;;
28531;SDS011;15738;44.860;10.066;2022-07-30T05:04:51;21.05;;;13.10;;
28531;SDS011;15738;44.860;10.066;2022-07-30T05:07:39;30.77;;;14.02;;
28531;SDS011;15738;44.860;10.066;2022-07-30T05:10:27;22.38;;;13.63;;
28531;SDS011;15738;44.860;10.066;2022-07-30T05:13:15;19.92;;;13.10;;
28531;SDS011;15738;44.860;10.066;2022-07-30T05:16:02;21.85;;;13.32;;
28531;SDS011;15738;44.860;10.066;2022-07-30T05:18:49;20.88;;;11.98;;
28531;SDS011;15738;44.860;10.066;2022-07-30T05:21:35;15.48;;;11.27;;
28531;SDS011;15738;44.860;10.066;2022-07-30T05:24:24;20.92;;;13.10;;
28531;SDS011;15738;44.860;10.066;2022-07-30T05:27:13;20.27;;;11.88;;
28531;SDS011;15738;44.860;10.066;2022-07-30T05:30:02;20.50;;;12.48;;
28531;SDS011;15738;44.860;10.066;2022-07-30T05:33:03;17.83;;;11.57;;
28531;SDS011;15738;44.860;10.066;2022-07-30T05:36:02;19.13;;;11.85;;
28531;SDS011;15738;44.860;10.066;2022-07-30T05:38:50;22.77;;;12.43;;
28531;SDS011;15738;44.860;10.066;2022-07-30T05:41:48;23.02;;;11.73;;
28531;SDS011;15738;44.860;10.066;2022-07-30T05:44:54;26.08;;;13.00;;
28531;SDS011;15738;44.860;10.066;2022-07-30T05:47:40;18.23;;;11.93;;
28531;SDS011;15738;44.860;10.066;2022-07-30T05:50:26;18.73;;;11.90;;
28531;SDS011;15738;44.860;10.066;2022-07-30T05:53:13;17.25;;;11.95;;
28531;SDS011;15738;44.860;10.066;2022-07-30T05:56:21;19.25;;;11.30;;
28531;SDS011;15738;44.860;10.066;2022-07-30T05:59:30;21.95;;;9.90;;
28531;SDS011;15738;44.860;10.066;2022-07-30T06:02:22;21.80;;;9.65;;
28531;SDS011;15738;44.860;10.066;2022-07-30T06:05:40;20.33;;;10.60;;
28531;SDS011;15738;44.860;10.066;2022-07-30T06:08:29;18.60;;;9.57;;
28531;SDS011;15738;44.860;10.066;2022-07-30T06:11:18;16.42;;;9.63;;
28531;SDS011;15738;44.860;10.066;2022-07-30T06:14:04;16.75;;;9.55;;
28531;SDS011;15738;44.860;10.066;2022-07-30T06:16:52;20.48;;;9.90;;
28531;SDS011;15738;44.860;10.066;2022-07-30T06:19:39;12.98;;;9.15;;
28531;SDS011;15738;44.860;10.066;2022-07-30T06:22:25;13.75;;;9.43;;
28531;SDS011;15738;44.860;10.066;2022-07-30T06:25:13;18.73;;;8.93;;
28531;SDS011;15738;44.860;10.066;2022-07-30T06:28:02;10.00;;;6.60;;
28531;SDS011;15738;44.860;10.066;2022-07-30T06:31:10;16.63;;;7.63;;
28531;SDS011;15738;44.860;10.066;2022-07-30T06:33:56;16.55;;;8.07;;
28531;SDS011;15738;44.860;10.066;2022-07-30T06:36:47;10.63;;;7.40;;
28531;SDS011;15738;44.860;10.066;2022-07-30T06:39:36;14.00;;;6.38;;
28531;SDS011;15738;44.860;10.066;2022-07-30T06:43:15;12.02;;;5.88;;
28531;SDS011;15738;44.860;10.066;2022-07-30T06:46:32;10.90;;;6.07;;
28531;SDS011;15738;44.860;10.066;2022-07-30T06:49:19;10.88;;;5.13;;
28531;SDS011;15738;44.860;10.066;2022-07-30T06:52:07;13.75;;;5.63;;
28531;SDS011;15738;44.860;10.066;2022-07-30T06:54:54;8.88;;;5.40;;
28531;SDS011;15738;44.860;10.066;2022-07-30T06:58:00;10.95;;;5.00;;
28531;SDS011;15738;44.860;10.066;2022-07-30T07:01:15;12.50;;;5.78;;
28531;SDS011;15738;44.860;10.066;2022-07-30T07:04:02;8.32;;;5.03;;
28531;SDS011;15738;44.860;10.066;2022-07-30T07:06:50;7.80;;;5.15;;
28531;SDS011;15738;44.860;10.066;2022-07-30T07:09:56;11.00;;;5.63;;
28531;SDS011;15738;44.860;10.066;2022-07-30T07:13:03;10.48;;;5.97;;
28531;SDS011;15738;44.860;10.066;2022-07-30T07:15:52;10.27;;;5.95;;
28531;SDS011;15738;44.860;10.066;2022-07-30T07:18:40;8.25;;;5.97;;
28531;SDS011;15738;44.860;10.066;2022-07-30T07:21:26;9.18;;;6.18;;
28531;SDS011;15738;44.860;10.066;2022-07-30T07:24:14;10.65;;;6.72;;
28531;SDS011;15738;44.860;10.066;2022-07-30T07:27:12;10.90;;;6.15;;
28531;SDS011;15738;44.860;10.066;2022-07-30T07:30:03;10.80;;;6.03;;
28531;SDS011;15738;44.860;10.066;2022-07-30T07:32:54;9.85;;;7.00;;
28531;SDS011;15738;44.860;10.066;2022-07-30T07:35:41;7.85;;;5.97;;
28531;SDS011;15738;44.860;10.066;2022-07-30T07:38:36;12.23;;;7.22;;
28531;SDS011;15738;44.860;10.066;2022-07-30T07:41:22;9.50;;;6.25;;
28531;SDS011;15738;44.860;10.066;2022-07-30T07:44:09;7.25;;;4.57;;
28531;SDS011;15738;44.860;10.066;2022-07-30T07:46:55;9.00;;;5.55;;
28531;SDS011;15738;44.860;10.066;2022-07-30T07:49:54;8.75;;;5.63;;
28531;SDS011;15738;44.860;10.066;2022-07-30T07:52:40;9.35;;;5.47;;
28531;SDS011;15738;44.860;10.066;2022-07-30T07:55:26;10.90;;;6.25;;
28531;SDS011;15738;44.860;10.066;2022-07-30T07:58:19;11.48;;;6.78;;
28531;SDS011;15738;44.860;10.066;2022-07-30T08:01:14;7.03;;;5.15;;
28531;SDS011;15738;44.860;10.066;2022-07-30T08:04:26;11.88;;;7.05;;
28531;SDS011;15738;44.860;10.066;2022-07-30T08:07:25;8.95;;;5.90;;
28531;SDS011;15738;44.860;10.066;2022-07-30T08:10:50;9.50;;;6.45;;
28531;SDS011;15738;44.860;10.066;2022-07-30T08:13:55;15.27;;;7.20;;
28531;SDS011;15738;44.860;10.066;2022-07-30T08:16:59;12.50;;;7.93;;
28531;SDS011;15738;44.860;10.066;2022-07-30T08:20:11;12.93;;;7.28;;
28531;SDS011;15738;44.860;10.066;2022-07-30T08:23:01;8.63;;;6.00;;
28531;SDS011;15738;44.860;10.066;2022-07-30T08:25:49;8.77;;;7.18;;
28531;SDS011;15738;44.860;10.066;2022-07-30T08:28:35;11.25;;;6.65;;
28531;SDS011;15738;44.860;10.066;2022-07-30T08:31:24;10.95;;;5.85;;
28531;SDS011;15738;44.860;10.066;2022-07-30T08:34:11;10.98;;;6.88;;
28531;SDS011;15738;44.860;10.066;2022-07-30T08:36:58;10.32;;;5.25;;
28531;SDS011;15738;44.860;10.066;2022-07-30T08:39:46;11.32;;;5.78;;
28531;SDS011;15738;44.860;10.066;2022-07-30T08:42:35;10.88;;;5.90;;
28531;SDS011;15738;44.860;10.066;2022-07-30T08:45:28;9.63;;;5.35;;
28531;SDS011;15738;44.860;10.066;2022-07-30T08:48:40;5.90;;;4.10;;
28531;SDS011;15738;44.860;10.066;2022-07-30T08:51:31;6.47;;;4.45;;
28531;SDS011;15738;44.860;10.066;2022-07-30T08:54:41;7.32;;;5.28;;
28531;SDS011;15738;44.860;10.066;2022-07-30T08:57:29;9.38;;;5.35;;
28531;SDS011;15738;44.860;10.066;2022-07-30T09:00:18;8.82;;;5.30;;
28531;SDS011;15738;44.860;10.066;2022-07-30T09:03:06;7.60;;;5.28;;
28531;SDS011;15738;44.860;10.066;2022-07-30T09:05:54;8.40;;;4.78;;
28531;SDS011;15738;44.860;10.066;2022-07-30T09:08:40;7.30;;;6.10;;
28531;SDS011;15738;44.860;10.066;2022-07-30T09:11:28;8.68;;;5.68;;
28531;SDS011;15738;44.860;10.066;2022-07-30T09:14:15;10.57;;;6.15;;
28531;SDS011;15738;44.860;10.066;2022-07-30T09:17:01;10.95;;;5.93;;
28531;SDS011;15738;44.860;10.066;2022-07-30T09:20:03;13.52;;;6.20;;
28531;SDS011;15738;44.860;10.066;2022-07-30T09:22:54;10.30;;;7.05;;
28531;SDS011;15738;44.860;10.066;2022-07-30T09:26:01;9.45;;;6.10;;
28531;SDS011;15738;44.860;10.066;2022-07-30T09:29:15;11.70;;;5.57;;
28531;SDS011;15738;44.860;10.066;2022-07-30T09:32:36;8.98;;;5.00;;
28531;SDS011;15738;44.860;10.066;2022-07-30T09:35:52;11.27;;;6.18;;
28531;SDS011;15738;44.860;10.066;2022-07-30T09:39:01;6.90;;;4.97;;
28531;SDS011;15738;44.860;10.066;2022-07-30T09:42:24;6.68;;;5.10;;
28531;SDS011;15738;44.860;10.066;2022-07-30T09:45:18;8.27;;;3.85;;
28531;SDS011;15738;44.860;10.066;2022-07-30T09:48:08;5.05;;;3.13;;
28531;SDS011;15738;44.860;10.066;2022-07-30T09:51:07;5.05;;;3.53;;
28531;SDS011;15738;44.860;10.066;2022-07-30T09:54:00;7.70;;;4.50;;
28531;SDS011;15738;44.860;10.066;2022-07-30T09:57:05;4.53;;;3.75;;
28531;SDS011;15738;44.860;10.066;2022-07-30T10:00:17;7.90;;;4.00;;
28531;SDS011;15738;44.860;10.066;2022-07-30T10:03:28;12.35;;;4.00;;
28531;SDS011;15738;44.860;10.066;2022-07-30T10:06:37;5.85;;;3.47;;
28531;SDS011;15738;44.860;10.066;2022-07-30T10:09:59;10.07;;;4.88;;
28531;SDS011;15738;44.860;10.066;2022-07-30T10:12:56;6.38;;;5.10;;
28531;SDS011;15738;44.860;10.066;2022-07-30T10:15:45;15.32;;;6.25;;
28531;SDS011;15738;44.860;10.066;2022-07-30T10:18:34;16.63;;;6.07;;
28531;SDS011;15738;44.860;10.066;2022-07-30T10:21:40;9.13;;;5.30;;
28531;SDS011;15738;44.860;10.066;2022-07-30T10:24:36;13.55;;;5.53;;
28531;SDS011;15738;44.860;10.066;2022-07-30T10:27:43;10.98;;;4.47;;
28531;SDS011;15738;44.860;10.066;2022-07-30T10:30:42;7.75;;;4.72;;
28531;SDS011;15738;44.860;10.066;2022-07-30T10:33:29;9.05;;;5.68;;
28531;SDS011;15738;44.860;10.066;2022-07-30T10:36:22;6.20;;;4.38;;
28531;SDS011;15738;44.860;10.066;2022-07-30T10:39:14;7.45;;;4.45;;
28531;SDS011;15738;44.860;10.066;2022-07-30T10:42:10;7.82;;;5.25;;
28531;SDS011;15738;44.860;10.066;2022-07-30T10:45:20;13.90;;;5.20;;
28531;SDS011;15738;44.860;10.066;2022-07-30T10:48:16;8.13;;;5.30;;
28531;SDS011;15738;44.860;10.066;2022-07-30T10:51:06;9.00;;;4.90;;
28531;SDS011;15738;44.860;10.066;2022-07-30T10:54:03;11.88;;;5.57;;
28531;SDS011;15738;44.860;10.066;2022-07-30T11:03:09;6.73;;;4.70;;
28531;SDS011;15738;44.860;10.066;2022-07-30T11:15:51;9.18;;;5.00;;
28531;SDS011;15738;44.860;10.066;2022-07-30T11:22:24;7.53;;;4.80;;
28531;SDS011;15738;44.860;10.066;2022-07-30T11:28:42;6.00;;;4.10;;
28531;SDS011;15738;44.860;10.066;2022-07-30T11:34:37;7.93;;;3.17;;
28531;SDS011;15738;44.860;10.066;2022-07-30T11:37:24;5.85;;;3.63;;
28531;SDS011;15738;44.860;10.066;2022-07-30T11:40:16;5.47;;;3.42;;
28531;SDS011;15738;44.860;10.066;2022-07-30T11:46:20;4.75;;;3.58;;
28531;SDS011;15738;44.860;10.066;2022-07-30T11:52:00;6.45;;;3.42;;
28531;SDS011;15738;44.860;10.066;2022-07-30T11:54:52;4.88;;;3.03;;
28531;SDS011;15738;44.860;10.066;2022-07-30T11:57:40;4.53;;;3.40;;
28531;SDS011;15738;44.860;10.066;2022-07-30T12:00:34;5.78;;;2.92;;
28531;SDS011;15738;44.860;10.066;2022-07-30T12:03:24;5.13;;;3.20;;
28531;SDS011;15738;44.860;10.066;2022-07-30T12:06:16;4.20;;;3.35;;
28531;SDS011;15738;44.860;10.066;2022-07-30T12:09:05;3.63;;;3.05;;
28531;SDS011;15738;44.860;10.066;2022-07-30T12:11:54;4.05;;;2.72;;
28531;SDS011;15738;44.860;10.066;2022-07-30T12:14:45;7.03;;;3.33;;
28531;SDS011;15738;44.860;10.066;2022-07-30T12:17:41;9.40;;;3.55;;
28531;SDS011;15738;44.860;10.066;2022-07-30T12:20:30;5.00;;;2.95;;
28531;SDS011;15738;44.860;10.066;2022-07-30T12:23:16;3.50;;;2.90;;
28531;SDS011;15738;44.860;10.066;2022-07-30T12:26:05;3.60;;;2.83;;
28531;SDS011;15738;44.860;10.066;2022-07-30T12:28:53;3.17;;;2.80;;
28531;SDS011;15738;44.860;10.066;2022-07-30T12:31:42;3.67;;;2.50;;
28531;SDS011;15738;44.860;10.066;2022-07-30T12:34:30;4.38;;;2.50;;
28531;SDS011;15738;44.860;10.066;2022-07-30T12:37:19;4.25;;;2.10;;
28531;SDS011;15738;44.860;10.066;2022-07-30T12:40:12;2.65;;;2.30;;
28531;SDS011;15738;44.860;10.066;2022-07-30T12:43:00;3.25;;;2.47;;
28531;SDS011;15738;44.860;10.066;2022-07-30T12:45:46;2.80;;;2.15;;
28531;SDS011;15738;44.860;10.066;2022-07-30T12:51:52;3.13;;;2.40;;
28531;SDS011;15738;44.860;10.066;2022-07-30T12:54:54;5.90;;;2.45;;
28531;SDS011;15738;44.860;10.066;2022-07-30T13:00:45;2.65;;;2.03;;
28531;SDS011;15738;44.860;10.066;2022-07-30T13:03:37;4.03;;;2.40;;
28531;SDS011;15738;44.860;10.066;2022-07-30T13:06:24;2.83;;;2.30;;
28531;SDS011;15738;44.860;10.066;2022-07-30T13:09:19;4.95;;;2.42;;
28531;SDS011;15738;44.860;10.066;2022-07-30T13:12:06;3.35;;;2.28;;
28531;SDS011;15738;44.860;10.066;2022-07-30T13:14:56;2.67;;;2.10;;
28531;SDS011;15738;44.860;10.066;2022-07-30T13:17:41;2.50;;;2.08;;
28531;SDS011;15738;44.860;10.066;2022-07-30T13:20:28;2.38;;;1.90;;
28531;SDS011;15738;44.860;10.066;2022-07-30T13:23:17;1.52;;;1.38;;
28531;SDS011;15738;44.860;10.066;2022-07-30T13:26:09;4.17;;;2.13;;
28531;SDS011;15738;44.860;10.066;2022-07-30T13:28:56;2.75;;;2.10;;
28531;SDS011;15738;44.860;10.066;2022-07-30T13:31:46;2.67;;;2.35;;
28531;SDS011;15738;44.860;10.066;2022-07-30T13:34:33;3.83;;;2.40;;
28531;SDS011;15738;44.860;10.066;2022-07-30T13:37:19;2.38;;;1.90;;
28531;SDS011;15738;44.860;10.066;2022-07-30T13:40:22;2.50;;;1.92;;
28531;SDS011;15738;44.860;10.066;2022-07-30T13:43:09;3.15;;;2.05;;
28531;SDS011;15738;44.860;10.066;2022-07-30T13:45:57;2.80;;;2.25;;
28531;SDS011;15738;44.860;10.066;2022-07-30T13:48:44;3.38;;;1.90;;
28531;SDS011;15738;44.860;10.066;2022-07-30T13:51:31;2.42;;;1.75;;
28531;SDS011;15738;44.860;10.066;2022-07-30T13:54:17;2.13;;;1.92;;
28531;SDS011;15738;44.860;10.066;2022-07-30T13:57:05;4.03;;;2.60;;
28531;SDS011;15738;44.860;10.066;2022-07-30T13:59:53;3.88;;;2.60;;
28531;SDS011;15738;44.860;10.066;2022-07-30T14:02:39;4.63;;;2.95;;
28531;SDS011;15738;44.860;10.066;2022-07-30T14:05:25;7.00;;;2.90;;
28531;SDS011;15738;44.860;10.066;2022-07-30T14:08:12;4.45;;;3.22;;
28531;SDS011;15738;44.860;10.066;2022-07-30T14:10:59;5.38;;;3.35;;
28531;SDS011;15738;44.860;10.066;2022-07-30T14:13:48;5.55;;;3.03;;
28531;SDS011;15738;44.860;10.066;2022-07-30T14:16:34;4.18;;;2.70;;
28531;SDS011;15738;44.860;10.066;2022-07-30T14:19:31;4.57;;;2.83;;
28531;SDS011;15738;44.860;10.066;2022-07-30T14:22:17;2.83;;;2.30;;
28531;SDS011;15738;44.860;10.066;2022-07-30T14:25:09;4.93;;;2.95;;
28531;SDS011;15738;44.860;10.066;2022-07-30T14:27:55;3.45;;;2.60;;
28531;SDS011;15738;44.860;10.066;2022-07-30T14:30:42;3.00;;;2.25;;
28531;SDS011;15738;44.860;10.066;2022-07-30T14:33:29;5.63;;;2.30;;
28531;SDS011;15738;44.860;10.066;2022-07-30T14:36:16;3.10;;;1.92;;
28531;SDS011;15738;44.860;10.066;2022-07-30T14:39:03;3.15;;;2.42;;
28531;SDS011;15738;44.860;10.066;2022-07-30T14:41:53;4.28;;;2.83;;
28531;SDS011;15738;44.860;10.066;2022-07-30T14:44:41;3.83;;;2.28;;
28531;SDS011;15738;44.860;10.066;2022-07-30T14:47:29;7.53;;;2.30;;
28531;SDS011;15738;44.860;10.066;2022-07-30T14:50:16;3.05;;;1.98;;
28531;SDS011;15738;44.860;10.066;2022-07-30T14:53:03;2.78;;;2.05;;
28531;SDS011;15738;44.860;10.066;2022-07-30T14:55:49;2.42;;;2.00;;
28531;SDS011;15738;44.860;10.066;2022-07-30T14:58:36;4.15;;;2.28;;
28531;SDS011;15738;44.860;10.066;2022-07-30T15:01:22;2.15;;;1.83;;
28531;SDS011;15738;44.860;10.066;2022-07-30T15:04:08;2.53;;;2.00;;
28531;SDS011;15738;44.860;10.066;2022-07-30T15:06:55;8.27;;;1.90;;
28531;SDS011;15738;44.860;10.066;2022-07-30T15:09:46;2.65;;;1.73;;
28531;SDS011;15738;44.860;10.066;2022-07-30T15:12:33;5.43;;;1.77;;
28531;SDS011;15738;44.860;10.066;2022-07-30T15:15:24;2.42;;;1.92;;
28531;SDS011;15738;44.860;10.066;2022-07-30T15:18:16;5.15;;;1.77;;
28531;SDS011;15738;44.860;10.066;2022-07-30T15:21:03;2.15;;;1.92;;
28531;SDS011;15738;44.860;10.066;2022-07-30T15:23:49;5.78;;;1.60;;
28531;SDS011;15738;44.860;10.066;2022-07-30T15:26:37;3.92;;;1.55;;
28531;SDS011;15738;44.860;10.066;2022-07-30T15:29:24;2.28;;;1.50;;
28531;SDS011;15738;44.860;10.066;2022-07-30T15:32:14;2.38;;;1.83;;
28531;SDS011;15738;44.860;10.066;2022-07-30T15:35:00;4.15;;;1.95;;
28531;SDS011;15738;44.860;10.066;2022-07-30T15:37:47;2.60;;;1.92;;
28531;SDS011;15738;44.860;10.066;2022-07-30T15:40:34;3.38;;;1.77;;
28531;SDS011;15738;44.860;10.066;2022-07-30T15:43:22;2.20;;;1.80;;
28531;SDS011;15738;44.860;10.066;2022-07-30T15:46:09;5.80;;;1.80;;
28531;SDS011;15738;44.860;10.066;2022-07-30T15:48:55;2.20;;;1.58;;
28531;SDS011;15738;44.860;10.066;2022-07-30T15:51:42;2.15;;;1.50;;
28531;SDS011;15738;44.860;10.066;2022-07-30T15:54:40;3.60;;;1.73;;
28531;SDS011;15738;44.860;10.066;2022-07-30T15:57:26;2.55;;;1.60;;
28531;SDS011;15738;44.860;10.066;2022-07-30T16:00:12;2.63;;;1.52;;
28531;SDS011;15738;44.860;10.066;2022-07-30T16:03:03;1.77;;;1.52;;
28531;SDS011;15738;44.860;10.066;2022-07-30T16:05:50;7.38;;;2.08;;
28531;SDS011;15738;44.860;10.066;2022-07-30T16:08:52;2.28;;;1.70;;
28531;SDS011;15738;44.860;10.066;2022-07-30T16:11:39;1.88;;;1.60;;
28531;SDS011;15738;44.860;10.066;2022-07-30T16:14:28;2.50;;;1.67;;
28531;SDS011;15738;44.860;10.066;2022-07-30T16:17:16;2.65;;;1.77;;
28531;SDS011;15738;44.860;10.066;2022-07-30T16:20:02;4.10;;;1.70;;
28531;SDS011;15738;44.860;10.066;2022-07-30T16:22:49;2.90;;;1.58;;
28531;SDS011;15738;44.860;10.066;2022-07-30T16:25:34;2.47;;;1.60;;
28531;SDS011;15738;44.860;10.066;2022-07-30T16:28:23;3.90;;;1.40;;
28531;SDS011;15738;44.860;10.066;2022-07-30T16:31:09;2.17;;;1.30;;
28531;SDS011;15738;44.860;10.066;2022-07-30T16:33:55;3.08;;;1.83;;
28531;SDS011;15738;44.860;10.066;2022-07-30T16:36:44;5.03;;;1.80;;
28531;SDS011;15738;44.860;10.066;2022-07-30T16:39:30;1.70;;;1.35;;
28531;SDS011;15738;44.860;10.066;2022-07-30T16:42:16;2.97;;;1.67;;
28531;SDS011;15738;44.860;10.066;2022-07-30T16:45:03;1.90;;;1.50;;
28531;SDS011;15738;44.860;10.066;2022-07-30T16:47:50;4.38;;;1.40;;
28531;SDS011;15738;44.860;10.066;2022-07-30T16:50:37;2.42;;;1.40;;
28531;SDS011;15738;44.860;10.066;2022-07-30T16:53:25;1.35;;;1.25;;
28531;SDS011;15738;44.860;10.066;2022-07-30T16:56:14;1.60;;;1.30;;
28531;SDS011;15738;44.860;10.066;2022-07-30T16:59:02;1.73;;;1.38;;
28531;SDS011;15738;44.860;10.066;2022-07-30T17:01:48;1.52;;;1.30;;
28531;SDS011;15738;44.860;10.066;2022-07-30T17:04:34;4.00;;;1.40;;
28531;SDS011;15738;44.860;10.066;2022-07-30T17:07:21;3.88;;;1.50;;
28531;SDS011;15738;44.860;10.066;2022-07-30T17:10:06;4.40;;;1.50;;
28531;SDS011;15738;44.860;10.066;2022-07-30T17:12:55;2.20;;;1.70;;
28531;SDS011;15738;44.860;10.066;2022-07-30T17:15:42;2.88;;;1.50;;
28531;SDS011;15738;44.860;10.066;2022-07-30T17:18:30;2.25;;;1.52;;
28531;SDS011;15738;44.860;10.066;2022-07-30T17:21:17;1.70;;;1.40;;
28531;SDS011;15738;44.860;10.066;2022-07-30T17:24:04;3.30;;;1.60;;
28531;SDS011;15738;44.860;10.066;2022-07-30T17:26:55;1.70;;;1.50;;
28531;SDS011;15738;44.860;10.066;2022-07-30T17:29:43;2.50;;;1.52;;
28531;SDS011;15738;44.860;10.066;2022-07-30T17:32:34;2.00;;;1.30;;
28531;SDS011;15738;44.860;10.066;2022-07-30T17:35:20;2.75;;;1.88;;
28531;SDS011;15738;44.860;10.066;2022-07-30T17:38:06;3.53;;;1.80;;